Time;durP1;ratioP1;P1;durP2;ratioP2;P2;SDS_P1;SDS_P2;PMS_P1;PMS_P2;Temp;Humidity;BMP_temperature;BMP_pressure;BME280_temperature;BME280_humidity;BME280_pressure;Samples;Min_cycle;Max_cycle;Signal;HPM_P1;HPM_P2
2021/01/07 00:02:12;;;;;;;;;;;6.90;99.90;;;6.25;85.73;99764.66;5058166;28;20372;-63
2021/01/07 00:04:39;;;;;;;;;;;6.90;99.90;;;6.24;86.03;99754.19;5058809;28;19977;-63
2021/01/07 00:07:06;;;;;;;;;;;6.80;99.90;;;6.20;86.33;99762.00;5092913;28;19969;-63
2021/01/07 00:09:33;;;;;;;;;;;6.80;99.90;;;6.21;86.68;99768.16;5093099;28;19924;-62
2021/01/07 00:12:00;;;;;;;;;;;6.80;99.90;;;6.19;86.82;99765.78;5092931;28;19924;-63
2021/01/07 00:14:27;;;;;;;;;;;6.80;99.90;;;6.15;86.86;99772.00;5092605;28;20428;-63
2021/01/07 00:16:54;;;;;;;;;;;6.80;99.90;;;6.14;87.31;99770.41;5074880;28;19931;-63
2021/01/07 00:19:22;;;;;;;;;;;6.80;99.90;;;6.08;87.02;99764.28;5092704;28;19924;-63
2021/01/07 00:21:49;;;;;;;;;;;6.70;99.90;;;6.02;87.60;99757.38;5074816;28;19931;-63
2021/01/07 00:24:16;;;;;;;;;;;6.60;99.90;;;5.92;88.13;99752.94;5074636;28;20369;-63
2021/01/07 00:26:43;;;;;;;;;;;6.60;99.90;;;5.86;88.60;99755.97;5092576;28;19924;-63
2021/01/07 00:29:10;;;;;;;;;;;6.50;99.90;;;5.81;88.83;99754.09;5092640;28;20516;-63
2021/01/07 00:31:37;;;;;;;;;;;6.50;99.90;;;5.78;88.73;99751.97;5096043;28;20055;-63
2021/01/07 00:34:04;;;;;;;;;;;6.40;99.90;;;5.76;89.07;99754.16;5094903;28;19989;-63
2021/01/07 00:36:32;;;;;;;;;;;6.40;99.90;;;5.71;89.76;99756.09;5112889;28;20510;-63
2021/01/07 00:38:59;;;;;;;;;;;6.40;99.90;;;5.69;90.20;99763.59;5112865;28;19930;-63
2021/01/07 00:41:26;;;;;;;;;;;6.30;99.90;;;5.67;90.56;99761.22;5112790;28;19924;-63
2021/01/07 00:43:53;;;;;;;;;;;6.30;99.90;;;5.71;90.40;99748.84;5094548;28;19924;-63
2021/01/07 00:46:21;;;;;;;;;;;6.30;99.90;;;5.73;90.74;99741.31;5112521;28;19924;-63
2021/01/07 00:48:48;;;;;;;;;;;6.30;99.90;;;5.77;90.98;99750.38;5112963;28;19934;-63
2021/01/07 00:51:16;;;;;;;;;;;6.40;99.90;;;5.82;91.32;99750.31;5112746;28;19924;-63
2021/01/07 00:53:43;;;;;;;;;;;6.40;99.90;;;5.91;91.54;99750.53;5112490;28;19923;-63
2021/01/07 00:56:11;;;;;;;;;;;6.50;99.90;;;6.03;90.95;99742.88;5112286;28;19976;-63
2021/01/07 00:58:38;;;;;;;;;;;6.60;99.90;;;6.11;89.97;99744.94;5094762;28;19931;-62
2021/01/07 01:01:05;;;;;;;;;;;6.70;99.90;;;6.16;89.82;99736.84;5112384;28;20370;-63
2021/01/07 01:03:32;;;;;;;;;;;6.70;99.90;;;6.18;90.22;99731.16;5094011;28;19928;-63
2021/01/07 01:05:59;;;;;;;;;;;6.80;99.90;;;6.22;90.13;99724.16;5112406;28;19927;-63
2021/01/07 01:08:26;;;;;;;;;;;6.80;99.90;;;6.22;89.51;99719.59;5094476;28;20374;-63
2021/01/07 01:10:54;;;;;;;;;;;6.80;99.90;;;6.25;89.97;99718.22;5112553;28;19924;-63
2021/01/07 01:13:21;;;;;;;;;;;6.80;99.90;;;6.27;90.45;99722.19;5111833;28;19984;-63
2021/01/07 01:15:48;;;;;;;;;;;6.90;99.90;;;6.28;90.32;99723.81;5093861;28;19927;-63
2021/01/07 01:18:15;;;;;;;;;;;6.90;99.90;;;6.34;89.60;99729.91;5112488;28;19927;-63
2021/01/07 01:20:42;;;;;;;;;;;6.90;99.90;;;6.35;89.79;99745.72;5077313;28;20015;-63
2021/01/07 01:23:09;;;;;;;;;;;7.00;99.90;;;6.37;90.02;99738.19;5111776;28;19928;-63
2021/01/07 01:25:36;;;;;;;;;;;7.00;99.90;;;6.37;89.88;99748.13;5111791;28;19931;-63
2021/01/07 01:28:05;;;;;;;;;;;7.00;99.90;;;6.39;90.60;99751.31;5112544;28;19930;-63
2021/01/07 01:30:32;;;;;;;;;;;7.00;99.90;;;6.39;90.20;99738.69;5093593;28;19932;-63
2021/01/07 01:32:59;;;;;;;;;;;7.00;99.90;;;6.39;90.30;99730.63;5093577;28;19924;-63
2021/01/07 01:35:26;;;;;;;;;;;7.00;99.90;;;6.44;90.53;99738.59;5112263;28;19928;-63
2021/01/07 01:37:53;;;;;;;;;;;7.00;99.90;;;6.45;90.62;99748.28;5111851;28;19977;-63
2021/01/07 01:40:20;;;;;;;;;;;7.00;99.90;;;6.49;90.10;99738.56;5077228;28;19927;-63
2021/01/07 01:42:47;;;;;;;;;;;7.10;99.90;;;6.53;90.23;99750.34;5111701;28;19931;-62
2021/01/07 01:45:16;;;;;;;;;;;7.10;99.90;;;6.53;90.10;99753.03;5112106;28;19924;-63
2021/01/07 01:47:43;;;;;;;;;;;7.10;99.90;;;6.52;90.45;99743.34;5111672;28;19924;-63
2021/01/07 01:50:10;;;;;;;;;;;7.10;99.90;;;6.51;90.17;99739.06;5110944;28;19931;-63
2021/01/07 01:52:38;;;;;;;;;;;7.10;99.90;;;6.48;89.97;99739.63;5093520;28;20163;-63
2021/01/07 01:55:05;;;;;;;;;;;7.10;99.90;;;6.50;90.37;99731.31;5112103;28;19928;-63
2021/01/07 01:57:33;;;;;;;;;;;7.10;99.90;;;6.50;90.24;99740.16;5111452;28;20258;-63
2021/01/07 02:00:00;;;;;;;;;;;7.10;99.90;;;6.53;90.00;99742.28;5076982;28;19931;-63
2021/01/07 02:02:28;;;;;;;;;;;7.10;99.90;;;6.54;90.64;99738.47;5111027;28;19927;-63
2021/01/07 02:04:55;;;;;;;;;;;7.10;99.90;;;6.52;90.17;99742.56;5109860;28;19923;-64
2021/01/07 02:07:26;;;;;;;;;;;7.10;99.90;;;6.45;90.83;99756.34;5076449;28;19946;-63
2021/01/07 02:09:53;;;;;;;;;;;7.10;99.90;;;6.36;90.34;99765.31;5093730;28;19920;-62
2021/01/07 02:12:21;;;;;;;;;;;7.00;99.90;;;6.24;89.77;99767.59;5111194;28;20275;-63
2021/01/07 02:14:48;;;;;;;;;;;6.90;99.90;;;6.10;90.93;99767.50;5111538;28;19949;-63
2021/01/07 02:17:16;;;;;;;;;;;6.70;99.90;;;6.03;90.19;99780.44;5111127;28;19993;-63
2021/01/07 02:19:44;;;;;;;;;;;6.70;99.90;;;5.99;90.58;99779.41;5110956;28;19924;-63
2021/01/07 02:22:12;;;;;;;;;;;6.60;99.90;;;5.95;90.94;99789.13;5111332;28;20302;-62
2021/01/07 02:24:39;;;;;;;;;;;6.50;99.90;;;5.92;91.55;99770.91;5111405;28;19928;-63
2021/01/07 02:27:08;;;;;;;;;;;6.50;99.90;;;5.93;91.40;99780.56;5111288;28;19924;-63
2021/01/07 02:29:35;;;;;;;;;;;6.50;99.90;;;5.95;91.16;99773.03;5111292;28;19924;-63
2021/01/07 02:32:02;;;;;;;;;;;6.50;99.90;;;5.96;91.75;99779.97;5111094;28;19923;-63
2021/01/07 02:34:30;;;;;;;;;;;6.60;99.90;;;6.01;91.54;99782.63;5093070;28;19935;-63
2021/01/07 02:36:57;;;;;;;;;;;6.60;99.90;;;5.98;91.93;99777.84;5111069;28;20332;-63
2021/01/07 02:39:25;;;;;;;;;;;6.60;99.90;;;5.99;91.93;99782.91;5093427;28;19923;-63
2021/01/07 02:41:53;;;;;;;;;;;6.60;99.90;;;5.98;91.83;99783.19;5111180;28;20348;-63
2021/01/07 02:44:21;;;;;;;;;;;6.60;99.90;;;6.01;91.48;99785.31;5110721;28;19928;-63
2021/01/07 02:46:48;;;;;;;;;;;6.60;99.90;;;6.03;92.04;99785.81;5110786;28;19928;-63
2021/01/07 02:49:15;;;;;;;;;;;6.60;99.90;;;6.06;91.65;99777.19;5093123;28;20393;-63
2021/01/07 02:51:42;;;;;;;;;;;6.60;99.90;;;6.07;91.88;99775.31;5110852;28;20375;-63
2021/01/07 02:54:09;;;;;;;;;;;6.70;99.90;;;6.05;91.40;99765.66;5092851;28;19969;-63
2021/01/07 02:56:37;;;;;;;;;;;6.70;99.90;;;6.04;91.24;99764.09;5110487;28;19924;-64
2021/01/07 02:59:05;;;;;;;;;;;6.60;99.90;;;6.03;90.86;99769.72;5111138;28;20857;-63
2021/01/07 03:01:32;;;;;;;;;;;6.60;99.90;;;5.99;90.68;99761.44;5112165;28;19935;-63
2021/01/07 03:03:59;;;;;;;;;;;6.60;99.90;;;5.98;90.72;99770.59;5114004;28;19936;-63
2021/01/07 03:06:26;;;;;;;;;;;6.60;99.90;;;5.98;90.74;99767.09;5114121;28;19938;-63
2021/01/07 03:08:54;;;;;;;;;;;6.60;99.90;;;5.97;91.20;99776.22;5096261;28;19977;-63
2021/01/07 03:11:21;;;;;;;;;;;6.60;99.90;;;5.98;90.53;99777.84;5113757;28;19977;-63
2021/01/07 03:13:48;;;;;;;;;;;6.60;99.90;;;6.01;91.08;99791.50;5113913;28;19976;-63
2021/01/07 03:16:16;;;;;;;;;;;6.60;99.90;;;6.00;90.84;99787.19;5114071;28;19924;-63
2021/01/07 03:18:43;;;;;;;;;;;6.70;99.90;;;5.99;92.01;99793.63;5096149;28;19931;-63
2021/01/07 03:21:10;;;;;;;;;;;6.70;99.90;;;5.97;91.01;99784.28;5114372;28;20302;-63
2021/01/07 03:23:37;;;;;;;;;;;6.60;99.90;;;5.89;90.66;99785.72;5095550;28;19923;-64
2021/01/07 03:26:04;;;;;;;;;;;6.50;99.90;;;5.86;90.51;99788.16;5113871;28;19977;-63
2021/01/07 03:28:31;;;;;;;;;;;6.50;99.90;;;5.85;90.76;99787.34;5114182;28;19928;-64
2021/01/07 03:30:59;;;;;;;;;;;6.50;99.90;;;5.90;90.70;99792.66;5096125;28;19950;-63
2021/01/07 03:33:26;;;;;;;;;;;6.50;99.90;;;5.97;89.08;99786.97;5113380;28;19928;-63
2021/01/07 03:35:53;;;;;;;;;;;6.50;99.90;;;5.99;88.93;99784.78;5113835;28;19923;-63
2021/01/07 03:38:20;;;;;;;;;;;6.60;99.90;;;6.01;89.46;99788.00;5113885;28;19923;-63
2021/01/07 03:40:47;;;;;;;;;;;6.60;99.90;;;5.97;90.28;99792.31;5113964;28;19981;-64
2021/01/07 03:43:14;;;;;;;;;;;6.70;99.90;;;5.97;90.26;99798.50;5095382;28;19924;-63
2021/01/07 03:45:41;;;;;;;;;;;6.60;99.90;;;5.95;90.58;99795.31;5113609;28;19924;-63
2021/01/07 03:48:09;;;;;;;;;;;6.60;99.90;;;5.99;90.29;99784.78;5113926;28;19924;-63
2021/01/07 03:50:36;;;;;;;;;;;6.60;99.90;;;6.01;89.54;99785.31;5113623;28;19931;-64
2021/01/07 03:53:03;;;;;;;;;;;6.70;99.90;;;6.06;89.26;99785.25;5113962;28;19931;-63
2021/01/07 03:55:30;;;;;;;;;;;6.70;99.90;;;6.09;88.50;99779.31;5113429;28;20372;-63
2021/01/07 03:57:57;;;;;;;;;;;6.70;99.90;;;6.08;89.65;99788.44;5113636;28;19931;-64
2021/01/07 04:00:24;;;;;;;;;;;6.70;99.90;;;6.04;89.52;99784.75;5113605;28;19931;-63
2021/01/07 04:02:52;;;;;;;;;;;6.70;99.90;;;5.99;88.79;99787.47;5095603;28;19923;-64
2021/01/07 04:05:19;;;;;;;;;;;6.70;99.90;;;5.97;89.62;99779.72;5095061;28;19976;-63
2021/01/07 04:07:46;;;;;;;;;;;6.60;99.90;;;5.96;89.57;99761.19;5113057;28;20386;-64
2021/01/07 04:10:14;;;;;;;;;;;6.60;99.90;;;5.93;88.43;99735.75;5113337;28;19924;-63
2021/01/07 04:12:41;;;;;;;;;;;6.60;99.90;;;5.91;88.16;99734.44;5113122;28;19977;-63
2021/01/07 04:15:08;;;;;;;;;;;6.50;99.90;;;5.89;89.03;99745.47;5113023;28;19924;-63
2021/01/07 04:17:35;;;;;;;;;;;6.50;99.90;;;5.85;88.95;99757.84;5113054;28;19927;-63
2021/01/07 04:20:03;;;;;;;;;;;6.50;99.90;;;5.84;89.09;99766.13;5095136;28;19993;-63
2021/01/07 04:22:31;;;;;;;;;;;6.50;99.90;;;5.80;89.45;99775.84;5113573;28;20279;-63
2021/01/07 04:24:58;;;;;;;;;;;6.40;99.90;;;5.79;89.74;99777.72;5061433;28;19946;-63
2021/01/07 04:27:25;;;;;;;;;;;6.50;99.90;;;5.82;90.12;99768.31;5113081;28;19932;-63
2021/01/07 04:29:52;;;;;;;;;;;6.50;99.90;;;5.85;90.44;99759.69;5113240;28;19924;-63
2021/01/07 04:32:19;;;;;;;;;;;6.50;99.90;;;5.81;90.57;99759.44;5095375;28;20493;-63
2021/01/07 04:34:46;;;;;;;;;;;6.50;99.90;;;5.80;90.43;99771.28;5112461;28;20079;-63
2021/01/07 04:37:13;;;;;;;;;;;6.50;99.90;;;5.77;89.61;99790.63;5112912;28;19924;-63
2021/01/07 04:39:41;;;;;;;;;;;6.40;99.90;;;5.75;88.18;99800.81;5094988;28;19976;-63
2021/01/07 04:42:09;;;;;;;;;;;6.40;99.90;;;5.72;88.55;99792.53;5095293;28;19931;-63
2021/01/07 04:44:37;;;;;;;;;;;6.30;99.90;;;5.69;87.76;99793.09;5112470;28;20398;-63
2021/01/07 04:47:04;;;;;;;;;;;6.30;99.90;;;5.65;86.54;99798.25;5112585;28;20375;-63
2021/01/07 04:49:31;;;;;;;;;;;6.30;99.90;;;5.66;86.15;99796.34;5112597;28;19924;-63
2021/01/07 04:51:58;;;;;;;;;;;6.30;99.90;;;5.64;85.15;99785.09;5113137;28;19924;-63
2021/01/07 04:54:25;;;;;;;;;;;6.20;99.90;;;5.63;84.46;99786.19;5112764;28;19950;-63
2021/01/07 04:56:53;;;;;;;;;;;6.20;99.90;;;5.61;83.87;99777.63;5112169;28;20363;-63
2021/01/07 04:59:20;;;;;;;;;;;6.20;99.90;;;5.59;84.75;99763.72;5112244;28;20387;-63
2021/01/07 05:01:48;;;;;;;;;;;6.20;99.90;;;5.57;85.21;99761.28;5112880;28;19972;-63
2021/01/07 05:04:16;;;;;;;;;;;6.20;99.90;;;5.61;84.86;99770.38;5112197;28;19923;-63
2021/01/07 05:06:43;;;;;;;;;;;6.20;99.90;;;5.67;84.27;99787.22;5094058;28;19924;-64
2021/01/07 05:09:11;;;;;;;;;;;6.30;99.90;;;5.75;83.76;99784.72;5094493;28;19949;-63
2021/01/07 05:11:38;;;;;;;;;;;6.30;99.90;;;5.80;83.51;99797.31;5112729;28;20293;-64
2021/01/07 05:14:07;;;;;;;;;;;6.40;99.90;;;5.79;83.42;99803.75;5112421;28;19928;-64
2021/01/07 05:16:34;;;;;;;;;;;6.40;99.90;;;5.77;83.66;99800.56;5093825;28;20290;-64
2021/01/07 05:19:03;;;;;;;;;;;6.40;99.90;;;5.73;82.89;99797.63;5112649;28;20349;-64
2021/01/07 05:21:30;;;;;;;;;;;6.30;99.90;;;5.70;82.85;99779.41;5112613;28;20299;-63
2021/01/07 05:23:58;;;;;;;;;;;6.30;99.90;;;5.69;83.14;99780.50;5094048;28;20290;-63
2021/01/07 05:26:26;;;;;;;;;;;6.30;99.90;;;5.66;83.11;99789.09;5111008;28;20018;-63
2021/01/07 05:28:55;;;;;;;;;;;6.30;99.90;;;5.59;84.06;99788.66;5112104;28;19924;-63
2021/01/07 05:31:25;;;;;;;;;;;6.30;99.90;;;5.60;84.69;99789.41;5112500;28;19935;-63
2021/01/07 05:33:52;;;;;;;;;;;6.30;99.90;;;5.61;84.84;99794.53;5112031;28;19923;-63
2021/01/07 05:36:25;;;;;;;;;;;6.20;99.90;;;5.62;84.92;99803.38;5111568;28;19923;-63
2021/01/07 05:38:53;;;;;;;;;;;6.20;99.90;;;5.58;84.80;99813.84;5112230;28;19924;-63
2021/01/07 05:41:20;;;;;;;;;;;6.20;99.90;;;5.57;84.48;99816.81;5094146;28;19931;-63
2021/01/07 05:43:58;;;;;;;;;;;6.20;99.90;;;5.52;84.97;99812.28;5111758;28;19928;-63
2021/01/07 05:46:26;;;;;;;;;;;6.20;99.90;;;5.51;84.26;99797.28;5111601;28;20440;-63
2021/01/07 05:48:54;;;;;;;;;;;6.10;99.90;;;5.47;83.55;99806.97;5094070;28;19931;-63
2021/01/07 05:51:24;;;;;;;;;;;6.10;99.90;;;5.47;83.70;99797.03;5093475;28;19928;-63
2021/01/07 05:53:52;;;;;;;;;;;6.10;99.90;;;5.44;84.48;99805.63;5093821;28;19927;-63
2021/01/07 05:56:20;;;;;;;;;;;6.10;99.90;;;5.45;84.16;99817.97;5093117;28;19924;-63
2021/01/07 05:58:48;;;;;;;;;;;6.00;99.90;;;5.49;85.12;99824.38;5111886;28;19928;-63
2021/01/07 06:01:16;;;;;;;;;;;6.10;99.90;;;5.47;84.90;99829.22;5094167;28;19935;-63
2021/01/07 06:03:47;;;;;;;;;;;6.10;99.90;;;5.45;83.81;99828.69;5095063;28;19977;-63
2021/01/07 06:06:16;;;;;;;;;;;6.10;99.90;;;5.48;83.75;99821.97;5111080;28;20039;-63
2021/01/07 06:08:48;;;;;;;;;;;6.10;99.90;;;5.48;83.06;99819.28;5093729;28;19946;-63
2021/01/07 06:11:15;;;;;;;;;;;6.10;99.90;;;5.51;83.69;99816.84;5111842;28;20018;-63
2021/01/07 06:13:44;;;;;;;;;;;6.10;99.90;;;5.53;83.15;99814.69;5111853;28;20374;-63
2021/01/07 06:16:15;;;;;;;;;;;6.10;99.90;;;5.55;82.37;99827.81;5092930;28;19931;-63
2021/01/07 06:18:42;;;;;;;;;;;6.10;99.90;;;5.55;81.79;99822.47;5111673;28;20344;-63
2021/01/07 06:21:11;;;;;;;;;;;6.10;99.90;;;5.56;81.26;99818.72;5093385;28;19927;-64
2021/01/07 06:23:42;;;;;;;;;;;6.10;99.90;;;5.54;80.78;99815.50;5093304;28;19924;-63
2021/01/07 06:26:19;;;;;;;;;;;6.10;99.90;;;5.52;80.89;99806.94;5111168;28;19931;-63
2021/01/07 06:28:48;;;;;;;;;;;6.10;99.90;;;5.54;80.38;99815.50;5093422;28;20356;-65
2021/01/07 06:31:15;;;;;;;;;;;6.10;99.90;;;5.49;81.13;99827.06;5111233;28;19924;-65
2021/01/07 06:33:43;;;;;;;;;;;6.10;99.90;;;5.50;80.67;99839.38;5093394;28;20386;-64
2021/01/07 06:36:12;;;;;;;;;;;6.10;99.90;;;5.49;80.92;99853.88;5093428;28;19924;-62
2021/01/07 06:38:52;;;;;;;;;;;6.10;99.90;;;5.48;80.78;99846.91;5114605;28;19946;-64
2021/01/07 06:41:20;;;;;;;;;;;6.10;99.90;;;5.51;80.72;99848.22;5097537;28;20313;-62
2021/01/07 06:43:48;;;;;;;;;;;6.10;99.90;;;5.46;80.61;99851.75;5114661;28;19981;-64
2021/01/07 06:46:42;;;;;;;;;;;6.10;99.90;;;5.48;80.34;99844.22;5113704;28;19959;-64
2021/01/07 06:49:28;;;;;;;;;;;6.10;99.90;;;5.46;80.88;99841.03;5101259;28;19924;-64
2021/01/07 06:51:58;;;;;;;;;;;6.10;99.90;;;5.46;80.23;99842.91;5096913;28;19924;-65
2021/01/07 06:54:29;;;;;;;;;;;6.10;99.90;;;5.43;81.45;99846.16;5114439;28;19928;-64
2021/01/07 06:56:56;;;;;;;;;;;6.00;99.90;;;5.41;81.54;99851.00;5114364;28;20362;-62
2021/01/07 06:59:24;;;;;;;;;;;6.10;99.90;;;5.42;81.52;99855.25;5114628;28;19924;-63
2021/01/07 07:01:54;;;;;;;;;;;6.00;99.90;;;5.39;81.86;99858.50;5096600;28;19923;-63
2021/01/07 07:04:25;;;;;;;;;;;6.00;99.90;;;5.40;82.04;99868.16;5114472;28;19924;-63
2021/01/07 07:06:59;;;;;;;;;;;6.00;99.90;;;5.39;82.24;99874.59;5113922;28;20010;-63
2021/01/07 07:09:26;;;;;;;;;;;6.10;99.90;;;5.39;81.87;99880.75;5114607;28;19938;-63
2021/01/07 07:11:54;;;;;;;;;;;6.00;99.90;;;5.34;81.79;99880.78;5114706;28;20363;-63
2021/01/07 07:14:22;;;;;;;;;;;6.00;99.90;;;5.34;82.26;99885.34;5096171;28;20359;-63
2021/01/07 07:16:49;;;;;;;;;;;6.00;99.90;;;5.31;81.75;99886.72;5096054;28;19924;-63
2021/01/07 07:19:26;;;;;;;;;;;6.00;99.90;;;5.29;82.50;99888.84;5114037;28;19980;-63
2021/01/07 07:21:56;;;;;;;;;;;5.90;99.90;;;5.25;82.36;99892.38;5114471;28;19924;-63
2021/01/07 07:24:33;;;;;;;;;;;5.90;99.90;;;5.21;82.21;99894.81;5113940;28;20374;-63
2021/01/07 07:27:03;;;;;;;;;;;5.90;99.90;;;5.26;82.35;99894.75;5079418;28;19927;-63
2021/01/07 07:29:34;;;;;;;;;;;5.90;99.90;;;5.25;81.70;99895.06;5113812;28;19924;-63
2021/01/07 07:32:02;;;;;;;;;;;5.90;99.90;;;5.25;81.33;99911.13;5114297;28;20357;-63
2021/01/07 07:34:31;;;;;;;;;;;5.90;99.90;;;5.26;82.60;99918.13;5095717;28;20310;-63
2021/01/07 07:36:58;;;;;;;;;;;5.90;99.90;;;5.26;81.59;99913.53;5113572;28;19924;-64
2021/01/07 07:39:27;;;;;;;;;;;5.90;99.90;;;5.31;81.40;99910.03;5091644;28;19932;-63
2021/01/07 07:42:11;;;;;;;;;;;5.90;99.90;;;5.28;81.47;99908.72;5109565;28;19965;-64
2021/01/07 07:44:38;;;;;;;;;;;5.90;99.90;;;5.32;80.99;99922.38;5113195;28;20374;-64
2021/01/07 07:47:05;;;;;;;;;;;5.90;99.90;;;5.35;82.45;99936.00;5095672;28;19932;-64
2021/01/07 07:49:33;;;;;;;;;;;6.00;99.90;;;5.35;82.81;99938.69;5112904;28;19932;-64
2021/01/07 07:52:00;;;;;;;;;;;6.00;99.90;;;5.39;82.87;99941.59;5114080;28;19947;-64
2021/01/07 07:54:27;;;;;;;;;;;6.00;99.90;;;5.41;83.99;99944.84;5113307;28;19935;-64
2021/01/07 07:57:00;;;;;;;;;;;6.00;99.90;;;5.39;83.49;99968.41;5113521;28;19924;-64
2021/01/07 07:59:28;;;;;;;;;;;6.00;99.90;;;5.36;83.41;99977.81;5113387;28;20313;-63
2021/01/07 08:01:55;;;;;;;;;;;6.00;99.90;;;5.36;83.06;99988.53;5114070;28;19924;-63
2021/01/07 08:04:23;;;;;;;;;;;6.00;99.90;;;5.41;83.98;99977.00;5113393;28;19928;-63
2021/01/07 08:06:51;;;;;;;;;;;6.00;99.90;;;5.43;83.44;99983.69;5113342;28;20019;-63
2021/01/07 08:09:19;;;;;;;;;;;6.00;99.90;;;5.46;82.05;99985.00;5113202;28;20320;-63
2021/01/07 08:11:51;;;;;;;;;;;6.10;99.90;;;5.48;81.43;99980.97;5113583;28;19934;-63
2021/01/07 08:14:20;;;;;;;;;;;6.10;99.90;;;5.53;81.11;99979.34;5113131;28;20290;-63
2021/01/07 08:16:49;;;;;;;;;;;6.10;99.90;;;5.60;80.36;99971.78;5095100;28;19935;-63
2021/01/07 08:19:25;;;;;;;;;;;6.20;99.90;;;5.59;80.26;99968.31;5113265;28;19959;-63
2021/01/07 08:21:53;;;;;;;;;;;6.20;99.90;;;5.62;79.66;99958.91;5113769;28;19931;-63
2021/01/07 08:24:22;;;;;;;;;;;6.20;99.90;;;5.73;79.10;99965.81;5112857;28;19928;-62
2021/01/07 08:27:03;;;;;;;;;;;6.30;99.90;;;5.84;78.08;99976.19;5112880;28;19923;-63
2021/01/07 08:29:33;;;;;;;;;;;6.40;99.90;;;5.88;78.45;99977.28;5113081;28;19924;-63
2021/01/07 08:32:02;;;;;;;;;;;6.40;99.90;;;5.95;77.82;99960.88;5112810;28;20295;-63
2021/01/07 08:34:30;;;;;;;;;;;6.50;99.90;;;6.01;77.66;99971.28;5112770;28;19924;-63
2021/01/07 08:37:10;;;;;;;;;;;6.50;99.90;;;6.12;76.39;99971.19;5112907;28;20394;-63
2021/01/07 08:39:38;;;;;;;;;;;6.70;99.90;;;6.19;76.27;99967.13;5112781;28;19977;-63
2021/01/07 08:42:06;;;;;;;;;;;6.70;99.90;;;6.23;75.51;99962.75;5113418;28;20243;-64
2021/01/07 08:44:33;;;;;;;;;;;6.80;99.90;;;6.25;76.30;99963.31;5112563;28;20023;-64
2021/01/07 08:47:02;;;;;;;;;;;6.80;99.90;;;6.28;76.29;99978.84;5112770;28;19928;-64
2021/01/07 08:49:29;;;;;;;;;;;6.90;99.90;;;6.36;76.54;99986.28;5112664;28;19924;-64
2021/01/07 08:51:59;;;;;;;;;;;6.90;99.90;;;6.39;75.96;99988.41;5113245;28;19993;-64
2021/01/07 08:54:27;;;;;;;;;;;7.00;99.90;;;6.40;76.70;99981.16;5112376;28;20395;-63
2021/01/07 08:56:55;;;;;;;;;;;7.00;99.90;;;6.40;76.70;99994.59;5112566;28;19931;-64
2021/01/07 08:59:25;;;;;;;;;;;7.00;99.90;;;6.36;77.24;99977.44;5112498;28;19924;-64
2021/01/07 09:01:54;;;;;;;;;;;7.00;99.90;;;6.34;76.17;99979.59;5095152;28;20051;-63
2021/01/07 09:04:26;;;;;;;;;;;6.90;99.90;;;6.24;75.93;99983.16;5112224;28;19923;-63
2021/01/07 09:06:54;;;;;;;;;;;6.80;99.90;;;6.22;75.92;99993.41;5112363;28;19923;-63
2021/01/07 09:09:22;;;;;;;;;;;6.80;99.90;;;6.24;75.87;99990.41;5094240;28;19977;-63
2021/01/07 09:11:49;;;;;;;;;;;6.80;99.90;;;6.24;76.12;99991.22;5094579;28;19993;-63
2021/01/07 09:14:16;;;;;;;;;;;6.80;99.90;;;6.29;76.07;99990.41;5093971;28;19924;-63
2021/01/07 09:16:58;;;;;;;;;;;6.80;99.90;;;6.30;75.78;100006.22;5094132;28;19933;-63
2021/01/07 09:19:26;;;;;;;;;;;6.90;99.90;;;6.29;76.17;100004.59;5112386;28;20560;-63
2021/01/07 09:22:00;;;;;;;;;;;6.90;99.90;;;6.42;76.22;100012.00;5112875;28;20011;-63
2021/01/07 09:24:32;;;;;;;;;;;6.90;99.90;;;6.54;75.26;100000.91;5111979;28;20010;-63
2021/01/07 09:27:07;;;;;;;;;;;7.10;99.90;;;6.58;75.91;100004.63;5111672;28;19928;-63
2021/01/07 09:29:34;;;;;;;;;;;7.10;99.90;;;6.55;75.65;100007.88;5111905;28;19928;-63
2021/01/07 09:32:02;;;;;;;;;;;7.10;99.90;;;6.58;74.87;100013.50;5112453;28;19977;-63
2021/01/07 09:34:30;;;;;;;;;;;7.10;99.90;;;6.62;75.09;100007.56;5111924;28;19931;-63
2021/01/07 09:37:02;;;;;;;;;;;7.20;99.90;;;6.73;74.71;100011.72;5111845;28;19923;-64
2021/01/07 09:39:29;;;;;;;;;;;7.30;99.90;;;6.81;75.48;100009.22;5112003;28;19928;-63
2021/01/07 09:41:56;;;;;;;;;;;7.40;99.90;;;6.95;74.52;100022.81;5112589;28;20263;-63
2021/01/07 09:44:23;;;;;;;;;;;7.50;99.90;;;6.99;74.30;100048.03;5093856;28;19923;-63
2021/01/07 09:46:55;;;;;;;;;;;7.60;99.90;;;6.99;73.69;100056.09;5111748;28;19924;-63
2021/01/07 09:49:22;;;;;;;;;;;7.60;99.90;;;6.99;73.28;100056.09;5076938;28;20271;-63
2021/01/07 09:51:50;;;;;;;;;;;7.50;99.90;;;6.98;73.78;100052.59;5111947;28;19924;-63
2021/01/07 09:54:17;;;;;;;;;;;7.60;99.90;;;6.94;73.00;100046.19;5093298;28;20283;-62
2021/01/07 09:56:45;;;;;;;;;;;7.50;99.90;;;6.93;73.56;100049.19;5111526;28;20010;-62
2021/01/07 09:59:12;;;;;;;;;;;7.50;99.90;;;6.98;74.30;100057.19;5112061;28;20017;-63
2021/01/07 10:01:39;;;;;;;;;;;7.50;99.90;;;7.01;74.00;100070.84;5112016;28;19923;-62
2021/01/07 10:04:06;;;;;;;;;;;7.60;99.90;;;7.04;74.45;100064.09;5093511;28;19924;-62
2021/01/07 10:06:34;;;;;;;;;;;7.60;99.90;;;7.14;74.83;100074.75;5092976;28;19924;-63
2021/01/07 10:09:01;;;;;;;;;;;7.70;99.90;;;7.15;74.24;100062.91;5111917;28;19924;-62
2021/01/07 10:11:29;;;;;;;;;;;7.70;99.90;;;7.19;74.98;100063.94;5110965;28;19924;-63
2021/01/07 10:13:56;;;;;;;;;;;7.80;99.90;;;7.25;75.89;100078.94;5111594;28;20018;-63
2021/01/07 10:16:23;;;;;;;;;;;7.90;99.90;;;7.36;75.36;100087.69;5111007;28;19923;-62
2021/01/07 10:18:51;;;;;;;;;;;7.90;99.90;;;7.33;74.35;100089.06;5111043;28;19924;-62
2021/01/07 10:21:22;;;;;;;;;;;7.90;99.90;;;7.40;75.11;100084.16;5111739;28;19937;-63
2021/01/07 10:23:49;;;;;;;;;;;8.00;99.90;;;7.46;75.23;100071.44;5111355;28;20386;-63
2021/01/07 10:26:18;;;;;;;;;;;8.00;99.90;;;7.57;75.19;100073.72;5092960;28;19928;-63
2021/01/07 10:28:47;;;;;;;;;;;8.10;99.90;;;7.69;75.31;100065.22;5111545;28;19927;-63
2021/01/07 10:31:15;;;;;;;;;;;8.30;99.90;;;7.72;74.11;100056.56;5111322;28;19923;-64
2021/01/07 10:33:43;;;;;;;;;;;8.30;99.90;;;7.66;73.99;100052.34;5093480;28;19930;-63
2021/01/07 10:36:11;;;;;;;;;;;8.20;99.90;;;7.70;73.50;100067.63;5111034;28;19928;-63
2021/01/07 10:38:38;;;;;;;;;;;8.30;99.90;;;7.83;74.64;100059.94;5093589;28;19930;-64
2021/01/07 10:41:07;;;;;;;;;;;8.40;99.90;;;7.96;75.30;100056.53;5111306;28;19981;-63
2021/01/07 10:43:35;;;;;;;;;;;8.60;99.90;;;8.03;72.58;100057.75;5111173;28;19923;-63
2021/01/07 10:46:03;;;;;;;;;;;8.60;99.90;;;7.95;73.20;100053.03;5110752;28;19932;-63
2021/01/07 10:48:31;;;;;;;;;;;8.50;99.90;;;8.03;72.42;100057.75;5092974;28;19930;-63
2021/01/07 10:51:00;;;;;;;;;;;8.60;99.90;;;8.18;72.81;100051.34;5110993;28;20644;-63
2021/01/07 10:54:06;;;;;;;;;;;8.80;99.90;;;8.42;71.20;100046.69;5111274;28;19927;-63
2021/01/07 10:56:50;;;;;;;;;;;9.00;99.90;;;8.49;71.82;100046.31;5081084;28;20385;-63
2021/01/07 10:59:34;;;;;;;;;;;9.10;99.90;;;8.82;72.30;100053.31;5111193;28;19964;-63
2021/01/07 11:02:19;;;;;;;;;;;9.30;99.90;;;9.16;69.95;100051.06;5111179;28;19924;-62
2021/01/07 11:05:03;;;;;;;;;;;9.60;99.90;;;9.23;68.94;100056.88;5110684;28;19928;-63
2021/01/07 11:07:32;;;;;;;;;;;9.70;99.90;;;9.41;69.31;100052.47;5091805;28;19931;-63
2021/01/07 11:10:04;;;;;;;;;;;9.90;99.90;;;9.53;68.36;100043.88;5110920;28;20393;-64
2021/01/07 11:12:35;;;;;;;;;;;10.00;99.90;;;9.60;67.39;100044.25;5110337;28;19924;-63
2021/01/07 11:15:05;;;;;;;;;;;10.10;99.90;;;9.76;68.29;100013.13;5110665;28;19928;-63
2021/01/07 11:17:35;;;;;;;;;;;10.30;99.90;;;9.82;67.04;100011.91;5110634;28;19928;-63
2021/01/07 11:20:05;;;;;;;;;;;10.40;99.90;;;9.94;66.07;100014.09;5110584;28;19923;-63
2021/01/07 11:22:34;;;;;;;;;;;10.40;99.90;;;9.74;66.90;100020.75;5110923;28;19928;-63
2021/01/07 11:25:02;;;;;;;;;;;10.30;99.90;;;9.62;66.10;100023.97;5113737;28;19927;-63
2021/01/07 11:27:31;;;;;;;;;;;10.20;99.90;;;9.53;65.18;100019.56;5113658;28;20374;-63
2021/01/07 11:29:59;;;;;;;;;;;10.10;99.90;;;9.49;65.87;100022.06;5114124;28;19985;-63
2021/01/07 11:32:30;;;;;;;;;;;10.10;99.90;;;9.72;67.54;100007.56;5114071;28;19928;-63
2021/01/07 11:34:59;;;;;;;;;;;10.30;99.90;;;9.84;64.75;100004.31;5095822;28;19924;-63
2021/01/07 11:37:34;;;;;;;;;;;10.40;99.90;;;9.64;65.09;100004.75;5113767;28;19932;-63
2021/01/07 11:40:07;;;;;;;;;;;10.20;99.90;;;9.72;66.42;99977.88;5114059;28;20397;-63